Time;durP1;ratioP1;P1;durP2;ratioP2;P2;SDS_P1;SDS_P2;PMS_P1;PMS_P2;Temp;Humidity;BMP_temperature;BMP_pressure;BME280_temperature;BME280_humidity;BME280_pressure;Samples;Min_cycle;Max_cycle;Signal;HPM_P1;HPM_P2
2021/08/18 00:01:28;;;;;;;16.65;8.25;;;;;;;20.60;62.45;96570.06;5082290;28;20058;-60
2021/08/18 00:03:55;;;;;;;13.07;7.13;;;;;;;20.39;62.14;96522.88;5082189;28;20101;-60
2021/08/18 00:06:22;;;;;;;9.43;6.30;;;;;;;20.35;62.22;96510.94;5082565;28;20056;-61
2021/08/18 00:08:49;;;;;;;8.35;6.47;;;;;;;20.40;61.95;96519.63;5082331;28;20055;-61
2021/08/18 00:11:15;;;;;;;8.20;6.15;;;;;;;20.83;61.99;96567.75;5081880;28;20060;-61
2021/08/18 00:13:42;;;;;;;10.50;6.15;;;;;;;20.74;62.17;96541.50;5082167;28;20143;-62
2021/08/18 00:16:09;;;;;;;9.73;6.57;;;;;;;20.37;62.23;96494.41;5081600;28;20063;-61
2021/08/18 00:18:36;;;;;;;8.73;6.68;;;;;;;20.71;62.64;96539.56;5081821;28;20337;-61
2021/08/18 00:21:03;;;;;;;9.13;6.47;;;;;;;20.55;62.45;96508.72;5083952;28;20131;-63
2021/08/18 00:23:29;;;;;;;8.18;6.38;;;;;;;20.82;62.18;96546.47;5082919;28;20048;-61
2021/08/18 00:25:56;;;;;;;7.38;6.13;;;;;;;20.54;63.47;96526.84;5081322;28;20067;-61
2021/08/18 00:28:23;;;;;;;9.20;6.53;;;;;;;20.56;64.04;96549.69;5082164;28;20055;-62
2021/08/18 00:30:49;;;;;;;8.68;6.70;;;;;;;20.22;64.51;96501.66;5083425;28;20056;-60
2021/08/18 00:33:16;;;;;;;7.70;6.65;;;;;;;20.10;64.92;96500.38;5081928;28;20058;-61
2021/08/18 00:35:43;;;;;;;8.90;6.00;;;;;;;20.35;65.51;96544.69;5082266;28;20562;-60
2021/08/18 00:38:10;;;;;;;10.57;6.95;;;;;;;20.10;65.22;96499.59;5082595;28;20153;-61
2021/08/18 00:40:36;;;;;;;9.23;6.38;;;;;;;20.40;65.16;96541.34;5082133;28;20154;-60
2021/08/18 00:43:03;;;;;;;7.15;5.95;;;;;;;20.13;64.87;96513.56;5083492;28;20510;-60
2021/08/18 00:45:30;;;;;;;9.27;6.35;;;;;;;20.23;64.77;96537.00;5081534;28;20067;-60
2021/08/18 00:47:58;;;;;;;9.95;5.90;;;;;;;20.26;65.42;96542.56;5085217;28;20059;-61
2021/08/18 00:50:29;;;;;;;7.47;6.35;;;;;;;20.15;66.32;96530.00;5085711;28;20598;-61
2021/08/18 00:52:56;;;;;;;7.18;6.47;;;;;;;20.18;66.43;96529.91;5087582;28;20063;-62
2021/08/18 00:55:25;;;;;;;7.00;6.20;;;;;;;20.10;67.42;96534.13;5085698;28;20114;-61
2021/08/18 00:57:53;;;;;;;12.70;6.15;;;;;;;20.11;68.48;96543.34;5086644;28;20056;-63
2021/08/18 01:00:21;;;;;;;9.57;6.38;;;;;;;19.53;68.38;96455.44;5085818;28;20052;-61
2021/08/18 01:02:48;;;;;;;8.52;6.70;;;;;;;20.19;68.84;96536.31;5087578;28;20106;-61
2021/08/18 01:05:36;;;;;;;7.47;6.55;;;;;;;20.19;69.17;96533.50;5085457;28;20428;-60
2021/08/18 01:08:03;;;;;;;7.70;6.35;;;;;;;19.81;69.33;96484.75;5085615;28;20503;-61
2021/08/18 01:10:33;;;;;;;9.65;6.40;;;;;;;20.08;69.52;96521.75;5085489;28;20055;-60
2021/08/18 01:13:00;;;;;;;13.70;7.20;;;;;;;19.24;68.95;96393.59;5085735;28;20064;-60
2021/08/18 01:15:28;;;;;;;7.72;6.13;;;;;;;20.02;68.96;96509.47;5085447;28;20067;-60
2021/08/18 01:17:58;;;;;;;9.65;6.50;;;;;;;19.97;67.87;96485.50;5085841;28;20059;-61
2021/08/18 01:20:31;;;;;;;8.18;6.30;;;;;;;20.08;68.33;96513.31;5086813;28;20480;-61
2021/08/18 01:22:59;;;;;;;8.23;6.57;;;;;;;20.06;68.52;96510.94;5087151;28;20621;-60
2021/08/18 01:25:26;;;;;;;11.70;7.47;;;;;;;20.05;68.65;96502.94;5086366;28;20056;-61
2021/08/18 01:27:57;;;;;;;6.88;6.20;;;;;;;20.14;68.06;96497.50;5085504;28;20056;-60
2021/08/18 01:30:25;;;;;;;11.93;6.95;;;;;;;19.66;68.18;96424.56;5085286;28;20170;-60
2021/08/18 01:32:58;;;;;;;8.27;6.93;;;;;;;20.03;66.78;96508.25;5085361;28;20056;-61
2021/08/18 01:35:33;;;;;;;9.30;6.95;;;;;;;19.79;66.98;96512.53;5085157;28;20058;-62
2021/08/18 01:38:02;;;;;;;8.52;7.63;;;;;;;19.60;67.22;96513.47;5085438;28;20555;-61
2021/08/18 01:40:29;;;;;;;12.30;6.97;;;;;;;19.46;68.08;96506.19;5085348;28;20085;-64
2021/08/18 01:42:56;;;;;;;14.63;7.80;;;;;;;18.79;68.78;96434.88;5085075;28;20522;-62
2021/08/18 01:45:31;;;;;;;9.52;7.60;;;;;;;19.32;69.07;96524.19;5086508;28;20075;-61
2021/08/18 01:48:05;;;;;;;8.88;7.55;;;;;;;19.21;69.80;96517.22;5085100;28;20056;-61
2021/08/18 01:50:32;;;;;;;11.88;7.78;;;;;;;19.08;70.43;96528.38;5085603;28;20052;-61
2021/08/18 01:52:59;;;;;;;13.82;8.02;;;;;;;19.09;70.59;96518.75;5085002;28;20521;-62
2021/08/18 01:55:26;;;;;;;10.57;7.68;;;;;;;18.31;70.95;96426.38;5084801;28;20048;-60
2021/08/18 01:57:56;;;;;;;11.57;7.70;;;;;;;18.96;70.75;96517.84;5086756;28;20825;-60
2021/08/18 02:00:23;;;;;;;16.20;8.68;;;;;;;18.67;70.60;96455.22;5086158;28;20055;-61
2021/08/18 02:02:50;;;;;;;10.93;8.07;;;;;;;19.22;70.13;96513.97;5084637;28;20147;-62
2021/08/18 02:05:18;;;;;;;13.88;8.65;;;;;;;19.41;69.28;96520.78;5084589;28;20060;-61
2021/08/18 02:07:45;;;;;;;12.90;9.13;;;;;;;19.13;68.84;96463.28;5084457;28;20063;-62
2021/08/18 02:10:14;;;;;;;11.50;7.40;;;;;;;19.57;68.63;96511.53;5085921;28;20056;-60
2021/08/18 02:12:42;;;;;;;7.80;6.90;;;;;;;19.72;68.44;96510.72;5084793;28;20060;-60
2021/08/18 02:15:10;;;;;;;14.43;8.35;;;;;;;19.79;68.39;96523.78;5083896;28;20066;-62
2021/08/18 02:17:37;;;;;;;15.32;8.68;;;;;;;19.82;67.76;96528.50;5086275;28;20054;-62
2021/08/18 02:20:08;;;;;;;11.20;7.45;;;;;;;19.61;69.17;96523.47;5085886;28;20117;-61
2021/08/18 02:22:34;;;;;;;8.20;6.90;;;;;;;19.37;69.84;96470.31;5085779;28;20482;-61
2021/08/18 02:25:02;;;;;;;9.55;7.30;;;;;;;19.74;69.76;96527.13;5084068;28;20055;-61
2021/08/18 02:27:29;;;;;;;8.32;7.20;;;;;;;19.72;69.93;96524.75;5084460;28;20059;-60
2021/08/18 02:29:56;;;;;;;11.13;7.53;;;;;;;19.73;69.58;96522.75;5083948;28;20083;-62
2021/08/18 02:32:22;;;;;;;10.48;6.95;;;;;;;19.74;69.64;96527.13;5085934;28;20064;-63
2021/08/18 02:34:49;;;;;;;10.43;7.00;;;;;;;19.75;69.56;96534.31;5084406;28;20048;-60
2021/08/18 02:37:16;;;;;;;11.85;8.20;;;;;;;19.32;69.75;96484.88;5085519;28;20586;-63
2021/08/18 02:39:42;;;;;;;8.90;7.70;;;;;;;19.63;69.37;96527.41;5083820;28;20564;-60
2021/08/18 02:42:09;;;;;;;11.68;7.97;;;;;;;18.76;68.86;96378.84;5083903;28;20048;-60
2021/08/18 02:44:36;;;;;;;10.70;7.65;;;;;;;17.36;68.24;96153.22;5083744;28;20056;-63
2021/08/18 02:47:03;;;;;;;9.40;7.28;;;;;;;19.58;68.40;96496.25;5083702;28;20079;-61
2021/08/18 02:49:30;;;;;;;9.65;7.95;;;;;;;19.87;68.18;96505.50;5083690;28;20060;-60
2021/08/18 02:51:57;;;;;;;9.05;7.30;;;;;;;19.52;68.04;96465.88;5085645;28;20058;-62
2021/08/18 02:54:25;;;;;;;10.15;7.82;;;;;;;19.94;67.48;96485.59;5085582;28;20056;-61
2021/08/18 02:56:52;;;;;;;8.80;7.65;;;;;;;19.92;67.28;96474.00;5085580;28;20341;-62
2021/08/18 02:59:20;;;;;;;11.45;7.95;;;;;;;20.12;67.96;96528.06;5083443;28;20058;-61
2021/08/18 03:01:47;;;;;;;9.75;7.75;;;;;;;20.20;67.53;96526.66;5084197;28;20052;-61
2021/08/18 03:04:15;;;;;;;11.15;7.65;;;;;;;20.21;67.26;96522.59;5085368;28;20060;-61
2021/08/18 03:06:42;;;;;;;10.18;7.32;;;;;;;19.51;67.11;96424.97;5085030;28;20529;-61
2021/08/18 03:09:09;;;;;;;9.30;7.50;;;;;;;20.10;67.31;96536.16;5082873;28;20059;-61
2021/08/18 03:11:36;;;;;;;8.60;7.18;;;;;;;19.97;67.80;96535.31;5082979;28;20056;-61
2021/08/18 03:14:04;;;;;;;8.57;7.10;;;;;;;19.74;68.54;96538.38;5083428;28;20135;-62
2021/08/18 03:16:30;;;;;;;8.95;7.25;;;;;;;19.19;68.38;96450.28;5083199;28;20083;-61
2021/08/18 03:18:58;;;;;;;10.38;7.70;;;;;;;19.52;69.40;96533.31;5085028;28;20052;-60
2021/08/18 03:21:25;;;;;;;8.00;7.20;;;;;;;19.38;70.23;96532.88;5083515;28;20060;-60
2021/08/18 03:23:52;;;;;;;11.00;7.50;;;;;;;19.24;71.41;96534.00;5083176;28;20131;-61
2021/08/18 03:26:18;;;;;;;9.90;8.32;;;;;;;19.20;71.95;96527.69;5083168;28;20051;-62
2021/08/18 03:28:45;;;;;;;8.75;7.85;;;;;;;19.04;71.46;96482.78;5083947;28;20502;-61
2021/08/18 03:31:12;;;;;;;8.35;7.55;;;;;;;19.32;71.59;96524.19;5084576;28;20497;-61
2021/08/18 03:33:39;;;;;;;12.13;7.80;;;;;;;19.41;71.64;96537.63;5084246;28;20059;-62
2021/08/18 03:36:05;;;;;;;12.18;8.27;;;;;;;19.33;71.24;96525.78;5084976;28;20074;-61
2021/08/18 03:38:32;;;;;;;20.90;11.32;;;;;;;18.50;73.87;96478.88;5082786;28;20117;-61
2021/08/18 03:40:59;;;;;;;11.52;8.60;;;;;;;18.27;77.74;96549.06;5084245;28;20084;-62
2021/08/18 03:43:26;;;;;;;12.30;7.95;;;;;;;18.63;76.08;96527.47;5083250;28;20126;-62
2021/08/18 03:45:55;;;;;;;9.95;8.07;;;;;;;18.85;75.24;96542.59;5083983;28;20494;-62
2021/08/18 03:48:21;;;;;;;10.98;8.63;;;;;;;18.69;74.28;96483.63;5082860;28;20060;-62
2021/08/18 03:50:49;;;;;;;20.98;10.38;;;;;;;19.12;73.89;96543.13;5082280;28;20056;-63
2021/08/18 03:53:16;;;;;;;17.80;11.32;;;;;;;18.67;73.91;96483.28;5082998;28;20422;-62
2021/08/18 03:55:43;;;;;;;15.85;9.15;;;;;;;19.25;73.28;96538.38;5083289;28;20063;-61
2021/08/18 03:58:10;;;;;;;14.02;8.45;;;;;;;19.44;72.07;96542.38;5083286;28;20094;-62
2021/08/18 04:00:37;;;;;;;13.00;8.60;;;;;;;19.32;70.82;96501.72;5084300;28;20429;-62
2021/08/18 04:03:04;;;;;;;12.70;8.88;;;;;;;19.74;70.53;96546.78;5082879;28;20101;-62
2021/08/18 04:05:31;;;;;;;13.88;8.25;;;;;;;19.61;70.15;96504.59;5083687;28;20048;-63
2021/08/18 04:07:58;;;;;;;11.77;8.32;;;;;;;20.01;69.07;96536.00;5083615;28;20511;-61
2021/08/18 04:10:25;;;;;;;11.25;8.27;;;;;;;19.90;68.71;96490.53;5082409;28;20066;-62
2021/08/18 04:12:57;;;;;;;11.63;8.25;;;;;;;20.24;68.46;96532.97;5082371;28;20055;-61
2021/08/18 04:15:43;;;;;;;15.85;8.77;;;;;;;20.29;68.45;96538.03;5082056;28;20102;-62
2021/08/18 04:18:11;;;;;;;16.65;9.05;;;;;;;20.37;68.06;96545.03;5082859;28;20048;-62
2021/08/18 04:20:38;;;;;;;18.30;10.38;;;;;;;20.15;67.62;96485.03;5082445;28;20165;-61
2021/08/18 04:23:05;;;;;;;12.48;8.77;;;;;;;20.54;67.60;96546.53;5083126;28;20129;-64
2021/08/18 04:25:32;;;;;;;19.55;9.32;;;;;;;20.59;67.40;96548.81;5082141;28;20054;-62
2021/08/18 04:27:59;;;;;;;19.55;9.88;;;;;;;20.59;66.77;96509.41;5083199;28;20060;-65
2021/08/18 04:30:26;;;;;;;15.50;9.07;;;;;;;20.14;66.30;96421.59;5083273;28;20064;-62
2021/08/18 04:32:53;;;;;;;18.48;9.27;;;;;;;21.07;65.93;96539.28;5082115;28;20067;-61
2021/08/18 04:35:20;;;;;;;14.85;9.02;;;;;;;21.03;65.25;96522.50;5082379;28;20052;-61
2021/08/18 04:37:47;;;;;;;16.98;9.75;;;;;;;20.87;65.62;96502.88;5081967;28;20048;-62
2021/08/18 04:40:15;;;;;;;18.20;8.93;;;;;;;21.27;65.41;96549.09;5083162;28;20171;-63
2021/08/18 04:42:46;;;;;;;24.08;9.93;;;;;;;21.42;64.97;96547.34;5083506;28;20062;-61
2021/08/18 04:45:15;;;;;;;19.60;8.80;;;;;;;21.57;64.33;96542.84;5081486;28;20054;-63
2021/08/18 04:47:41;;;;;;;15.52;8.55;;;;;;;21.82;63.36;96545.63;5081916;28;20077;-63
2021/08/18 04:50:11;;;;;;;12.20;8.93;;;;;;;21.95;63.05;96549.19;5081940;28;20168;-61
2021/08/18 04:52:38;;;;;;;18.52;9.15;;;;;;;22.22;62.18;96546.56;5083687;28;20062;-63
2021/08/18 04:55:05;;;;;;;15.98;9.20;;;;;;;22.51;61.35;96554.00;5083341;28;20560;-62
2021/08/18 04:57:32;;;;;;;13.85;8.18;;;;;;;22.61;60.55;96538.69;5083254;28;20071;-62
2021/08/18 04:59:59;;;;;;;14.80;9.15;;;;;;;22.73;60.89;96568.91;5081889;28;20576;-63
2021/08/18 05:02:26;;;;;;;17.05;8.40;;;;;;;22.69;61.73;96556.94;5081946;28;20180;-65
2021/08/18 05:04:53;;;;;;;10.20;8.55;;;;;;;23.16;60.33;96574.44;5082832;28;20553;-63
2021/08/18 05:07:20;;;;;;;15.57;8.45;;;;;;;23.19;59.44;96579.22;5081299;28;20113;-63
2021/08/18 05:09:47;;;;;;;14.70;9.43;;;;;;;22.99;62.73;96581.59;5081456;28;20374;-62
2021/08/18 05:12:14;;;;;;;24.55;10.18;;;;;;;21.95;68.43;96537.09;5081458;28;20051;-61
2021/08/18 05:14:41;;;;;;;31.33;10.98;;;;;;;21.60;72.44;96591.88;5081517;28;20622;-61
2021/08/18 05:17:08;;;;;;;31.92;10.57;;;;;;;21.19;77.48;96587.19;5081922;28;20052;-62
2021/08/18 05:19:34;;;;;;;23.95;12.48;;;;;;;20.92;82.40;96576.31;5081212;28;20051;-63
2021/08/18 05:22:01;;;;;;;25.27;12.25;;;;;;;20.73;84.01;96565.25;5081143;28;20052;-64
2021/08/18 05:24:28;;;;;;;20.92;11.80;;;;;;;20.69;83.61;96589.94;5082791;28;20068;-64
2021/08/18 05:26:55;;;;;;;26.40;12.23;;;;;;;20.36;86.85;96580.81;5081432;28;20151;-62
2021/08/18 05:29:22;;;;;;;24.23;12.25;;;;;;;20.07;86.33;96539.84;5081195;28;20117;-63
2021/08/18 05:31:49;;;;;;;24.83;13.52;;;;;;;20.58;90.17;96617.59;5081403;28;20586;-63
2021/08/18 05:34:16;;;;;;;25.02;14.77;;;;;;;20.26;94.60;96614.88;5085974;28;20221;-62
2021/08/18 05:36:43;;;;;;;42.42;17.73;;;;;;;20.41;96.28;96604.81;5086850;28;20044;-62
2021/08/18 05:39:10;;;;;;;20.90;13.23;;;;;;;20.15;92.36;96535.63;5084806;28;20627;-63
2021/08/18 05:41:37;;;;;;;16.40;13.35;;;;;;;20.83;91.67;96603.56;5086646;28;20143;-63
2021/08/18 05:44:04;;;;;;;17.77;13.43;;;;;;;21.06;88.50;96606.09;5084953;28;20051;-63
2021/08/18 05:46:31;;;;;;;17.30;12.45;;;;;;;20.34;86.73;96464.34;5083526;28;20058;-61
2021/08/18 05:48:58;;;;;;;18.00;11.93;;;;;;;20.88;83.11;96521.38;5067868;28;20056;-61
2021/08/18 05:51:25;;;;;;;15.88;11.95;;;;;;;20.71;83.52;96488.91;5066650;28;20056;-60
2021/08/18 05:53:51;;;;;;;17.83;12.30;;;;;;;21.34;82.18;96548.84;5078230;28;20470;-62
2021/08/18 05:56:19;;;;;;;13.13;10.65;;;;;;;21.86;79.89;96602.66;5083011;28;20055;-65
2021/08/18 05:58:46;;;;;;;14.88;11.07;;;;;;;22.10;79.08;96600.22;5086494;28;20048;-61
2021/08/18 06:01:13;;;;;;;19.85;12.18;;;;;;;22.37;79.97;96595.63;5084751;28;20056;-62
2021/08/18 06:03:40;;;;;;;14.88;10.60;;;;;;;22.62;76.56;96568.53;5052075;28;20465;-66
2021/08/18 06:06:07;;;;;;;14.88;10.90;;;;;;;23.08;75.56;96604.28;5052428;28;20142;-64
2021/08/18 06:08:33;;;;;;;16.73;10.85;;;;;;;23.01;72.64;96545.22;5048116;28;20494;-65
2021/08/18 06:11:00;;;;;;;14.77;10.35;;;;;;;23.78;69.20;96598.59;5050753;28;20044;-66
2021/08/18 06:13:29;;;;;;;16.10;11.32;;;;;;;24.02;69.47;96601.66;5050550;28;20058;-63
2021/08/18 06:15:56;;;;;;;18.48;10.82;;;;;;;24.15;71.13;96611.59;5047726;28;20044;-64
2021/08/18 06:18:23;;;;;;;12.00;10.75;;;;;;;23.30;73.15;96506.09;5048810;28;20048;-66
2021/08/18 06:20:49;;;;;;;13.25;11.38;;;;;;;22.17;72.50;96397.63;5050428;28;20052;-64
2021/08/18 06:23:20;;;;;;;12.70;10.73;;;;;;;23.76;69.99;96595.44;5049781;28;20044;-59
2021/08/18 06:25:48;;;;;;;23.65;11.13;;;;;;;23.76;69.63;96609.56;5045854;28;20438;-63
2021/08/18 06:28:15;;;;;;;16.65;11.82;;;;;;;23.85;71.06;96572.84;5050813;28;20143;-62
2021/08/18 06:30:41;;;;;;;18.20;13.00;;;;;;;23.16;70.70;96518.72;5046342;28;20058;-63
2021/08/18 06:33:08;;;;;;;12.85;11.35;;;;;;;23.92;68.58;96591.56;5050618;28;20056;-63
2021/08/18 06:35:35;;;;;;;13.40;11.00;;;;;;;24.51;67.19;96617.25;5050240;28;20650;-61
2021/08/18 06:38:02;;;;;;;14.68;11.27;;;;;;;23.19;64.91;96358.78;5052093;28;20048;-64
2021/08/18 06:40:29;;;;;;;21.30;11.65;;;;;;;25.12;62.46;96627.41;5049326;28;20083;-61
2021/08/18 06:42:56;;;;;;;18.85;12.15;;;;;;;25.00;62.75;96586.69;5043936;28;20048;-69
2021/08/18 06:45:23;;;;;;;20.95;10.77;;;;;;;25.50;60.88;96619.13;5045479;28;20484;-66
2021/08/18 06:47:50;;;;;;;16.45;11.30;;;;;;;25.45;61.89;96610.50;5045836;28;20045;-60
2021/08/18 06:50:16;;;;;;;13.50;11.00;;;;;;;25.58;62.12;96602.56;5046095;28;20052;-65
2021/08/18 06:52:43;;;;;;;17.40;11.25;;;;;;;25.38;61.22;96588.16;5045765;28;20103;-64
2021/08/18 06:55:10;;;;;;;19.58;11.10;;;;;;;25.92;60.21;96602.06;5044949;28;20052;-65
2021/08/18 06:57:37;;;;;;;17.30;12.65;;;;;;;26.04;57.91;96606.75;5045277;28;20633;-64
2021/08/18 07:00:06;;;;;;;15.35;11.65;;;;;;;26.17;57.39;96595.94;5051663;28;20149;-63
2021/08/18 07:02:33;;;;;;;16.95;11.23;;;;;;;26.22;56.67;96600.94;5049649;28;20052;-66
2021/08/18 07:05:05;;;;;;;18.17;11.55;;;;;;;25.55;53.88;96473.81;5045386;28;20973;-69
2021/08/18 07:07:31;;;;;;;15.05;11.10;;;;;;;24.23;55.65;96326.94;5047695;28;20287;-65
2021/08/18 07:09:58;;;;;;;14.90;11.90;;;;;;;26.25;56.46;96591.47;5051544;28;20052;-63
2021/08/18 07:12:25;;;;;;;17.23;11.60;;;;;;;25.99;57.19;96593.16;5049491;28;20050;-63
2021/08/18 07:14:52;;;;;;;14.90;11.77;;;;;;;25.43;59.43;96562.78;5051043;28;20700;-65
2021/08/18 07:17:18;;;;;;;13.55;10.98;;;;;;;25.12;62.30;96599.88;5050703;28;20056;-65
2021/08/18 07:19:45;;;;;;;20.25;13.57;;;;;;;23.72;66.75;96456.22;5044744;28;20046;-64
2021/08/18 07:22:11;;;;;;;18.35;12.93;;;;;;;24.26;69.26;96599.78;5049383;28;20520;-61
2021/08/18 07:24:38;;;;;;;24.58;13.50;;;;;;;23.15;72.37;96519.19;5049077;28;20518;-63
2021/08/18 07:27:05;;;;;;;19.08;14.73;;;;;;;23.55;71.47;96608.41;5047222;28;20479;-60
2021/08/18 07:29:32;;;;;;;17.17;13.43;;;;;;;23.70;73.17;96569.03;5051530;28;20052;-60
2021/08/18 07:31:59;;;;;;;20.88;12.98;;;;;;;24.01;69.39;96583.91;5051177;28;20151;-60
2021/08/18 07:34:26;;;;;;;17.20;11.90;;;;;;;24.03;65.78;96626.66;5045934;28;20662;-60
2021/08/18 07:36:53;;;;;;;17.73;13.23;;;;;;;24.05;68.67;96587.34;5051059;28;20078;-60
2021/08/18 07:39:19;;;;;;;15.23;13.10;;;;;;;22.01;67.59;96316.03;5049659;28;20052;-60
2021/08/18 07:41:46;;;;;;;15.55;12.10;;;;;;;24.46;66.37;96625.59;5046242;28;20052;-61
2021/08/18 07:44:13;;;;;;;16.35;10.98;;;;;;;24.51;64.69;96622.94;5041361;28;20052;-65
2021/08/18 07:46:39;;;;;;;16.95;12.38;;;;;;;24.77;64.75;96617.75;5048339;28;20470;-65
2021/08/18 07:49:06;;;;;;;14.60;12.35;;;;;;;25.15;62.93;96587.56;5047743;28;20165;-62
2021/08/18 07:51:33;;;;;;;18.15;11.35;;;;;;;25.41;60.52;96598.53;5046313;28;20234;-65
2021/08/18 07:54:00;;;;;;;16.20;11.18;;;;;;;25.68;59.06;96612.59;5050231;28;20506;-62
2021/08/18 07:56:31;;;;;;;12.30;11.00;;;;;;;25.89;57.70;96603.81;5048176;28;20055;-63
2021/08/18 07:58:59;;;;;;;14.77;11.20;;;;;;;26.31;56.92;96609.41;5047510;28;20808;-63
2021/08/18 08:01:34;;;;;;;19.75;13.20;;;;;;;26.64;56.97;96610.09;5049292;28;20155;-63
2021/08/18 08:04:01;;;;;;;13.68;11.85;;;;;;;25.81;56.25;96528.81;5047565;28;20600;-63
2021/08/18 08:06:28;;;;;;;11.85;10.65;;;;;;;26.43;56.66;96616.91;5036116;28;20136;-63
2021/08/18 08:08:55;;;;;;;14.63;11.45;;;;;;;26.74;55.56;96591.72;5039709;28;20063;-62
2021/08/18 08:11:21;;;;;;;19.23;11.43;;;;;;;26.15;54.72;96476.38;5031834;28;20055;-62
2021/08/18 08:13:48;;;;;;;13.60;11.27;;;;;;;26.72;55.34;96594.25;5030509;28;20576;-64
2021/08/18 08:16:15;;;;;;;13.38;11.20;;;;;;;26.83;54.93;96617.19;5031466;28;20068;-62
2021/08/18 08:18:42;;;;;;;12.75;11.38;;;;;;;26.89;54.27;96603.09;5031583;28;20045;-62
2021/08/18 08:21:08;;;;;;;14.75;11.60;;;;;;;26.86;52.29;96569.97;5029948;28;20512;-64
2021/08/18 08:23:35;;;;;;;14.68;11.63;;;;;;;27.30;52.95;96597.13;5030314;28;20066;-62
2021/08/18 08:26:02;;;;;;;13.07;10.32;;;;;;;27.06;50.61;96550.94;5032351;28;20048;-63
2021/08/18 08:28:29;;;;;;;14.73;11.27;;;;;;;27.48;49.91;96604.66;5029873;28;20429;-61
2021/08/18 08:30:56;;;;;;;15.93;10.77;;;;;;;27.41;50.75;96600.16;5050005;28;20051;-61
2021/08/18 08:33:23;;;;;;;22.05;11.75;;;;;;;27.68;49.57;96602.66;5051426;28;20370;-62
2021/08/18 08:35:49;;;;;;;17.25;10.82;;;;;;;27.78;48.47;96595.59;5051738;28;20052;-62
2021/08/18 08:38:16;;;;;;;12.82;10.73;;;;;;;27.85;48.81;96595.16;5050796;28;20055;-62
2021/08/18 08:40:44;;;;;;;13.68;10.65;;;;;;;27.47;48.86;96598.22;5049369;28;20574;-63
2021/08/18 08:43:14;;;;;;;17.67;12.00;;;;;;;27.05;49.01;96526.59;5050773;28;20214;-63
2021/08/18 08:45:46;;;;;;;19.50;11.68;;;;;;;27.49;47.98;96570.03;5051073;28;20055;-63
2021/08/18 08:48:15;;;;;;;22.45;12.80;;;;;;;27.17;49.55;96568.19;5049515;28;20056;-62
2021/08/18 08:50:44;;;;;;;12.80;11.27;;;;;;;26.30;48.82;96391.97;5050675;28;20109;-63
2021/08/18 08:53:13;;;;;;;16.88;11.32;;;;;;;27.53;49.28;96562.09;5050494;28;20482;-61
2021/08/18 08:55:41;;;;;;;13.35;11.05;;;;;;;27.95;48.25;96576.69;5052089;28;20055;-62
2021/08/18 08:58:08;;;;;;;15.77;11.00;;;;;;;27.83;47.30;96505.84;5051519;28;20070;-63
2021/08/18 09:00:35;;;;;;;17.63;11.90;;;;;;;28.32;47.00;96576.94;5051357;28;20149;-63
2021/08/18 09:03:09;;;;;;;14.23;11.82;;;;;;;28.55;47.48;96578.03;5052161;28;20343;-63
2021/08/18 09:05:36;;;;;;;17.05;11.10;;;;;;;28.73;45.95;96544.28;5049317;28;20910;-63
2021/08/18 09:08:08;;;;;;;17.33;11.82;;;;;;;27.97;46.34;96477.31;5054245;28;20510;-62
2021/08/18 09:10:35;;;;;;;16.80;11.38;;;;;;;27.50;46.81;96499.69;5055405;28;20052;-64
2021/08/18 09:13:09;;;;;;;15.70;14.10;;;;;;;27.70;47.90;96520.41;5055108;28;20538;-62
2021/08/18 09:15:36;;;;;;;18.25;12.85;;;;;;;27.77;48.16;96554.13;5054965;28;20056;-62
2021/08/18 09:18:03;;;;;;;16.50;11.38;;;;;;;27.37;47.26;96490.69;5056392;28;20048;-62
2021/08/18 09:20:30;;;;;;;17.80;12.52;;;;;;;27.83;48.63;96555.03;5054032;28;20052;-62
2021/08/18 09:22:59;;;;;;;30.67;18.40;;;;;;;28.08;46.29;96542.97;5054534;28;20052;-64
2021/08/18 09:25:29;;;;;;;19.02;15.23;;;;;;;27.87;48.04;96558.44;5056522;28;20060;-63
2021/08/18 09:27:56;;;;;;;19.88;12.90;;;;;;;28.13;47.82;96562.19;5056138;28;20056;-62
2021/08/18 09:30:29;;;;;;;14.10;11.20;;;;;;;28.44;46.78;96537.97;5056728;28;20052;-62
2021/08/18 09:32:58;;;;;;;19.73;12.45;;;;;;;28.23;45.98;96550.66;5055631;28;20161;-63
2021/08/18 09:35:29;;;;;;;17.52;10.40;;;;;;;28.29;46.07;96540.09;5056004;28;20050;-62
2021/08/18 09:37:58;;;;;;;14.45;11.02;;;;;;;28.67;44.72;96546.28;5055338;28;20151;-63
2021/08/18 09:40:37;;;;;;;17.50;11.63;;;;;;;28.86;44.78;96538.97;5053730;28;20150;-62
2021/08/18 09:43:26;;;;;;;13.63;11.70;;;;;;;28.33;45.06;96500.78;5054985;28;20138;-65
2021/08/18 09:45:57;;;;;;;12.75;10.02;;;;;;;28.97;44.49;96529.72;5054151;28;20055;-62
2021/08/18 09:48:26;;;;;;;11.68;10.55;;;;;;;28.40;43.95;96478.34;5055459;28;20442;-62
2021/08/18 09:50:57;;;;;;;15.73;10.75;;;;;;;29.29;43.46;96528.47;5055751;28;20040;-62
2021/08/18 09:53:30;;;;;;;14.05;10.63;;;;;;;28.84;43.64;96520.78;5054512;28;20570;-63
2021/08/18 09:55:59;;;;;;;15.48;9.90;;;;;;;28.99;43.37;96513.66;5054234;28;20529;-65
2021/08/18 09:58:38;;;;;;;13.90;10.77;;;;;;;29.37;42.62;96506.75;5054817;28;20063;-62
2021/08/18 10:01:10;;;;;;;16.98;11.68;;;;;;;29.08;43.09;96501.31;5053406;28;20075;-64
2021/08/18 10:03:38;;;;;;;17.08;10.88;;;;;;;29.10;43.42;96498.75;5053662;28;20392;-64
2021/08/18 10:06:07;;;;;;;13.82;10.60;;;;;;;29.58;41.92;96511.03;5057832;28;20056;-63
2021/08/18 10:08:36;;;;;;;13.63;11.23;;;;;;;28.21;41.93;96242.69;5054203;28;20131;-63
2021/08/18 10:11:04;;;;;;;15.90;10.70;;;;;;;29.88;41.56;96512.28;5054683;28;20056;-63
2021/08/18 10:13:31;;;;;;;12.35;11.05;;;;;;;30.14;41.20;96506.44;5054353;28;20062;-63
2021/08/18 10:15:58;;;;;;;11.88;10.60;;;;;;;30.13;39.38;96488.50;5052476;28;20056;-63
2021/08/18 10:18:40;;;;;;;10.65;9.32;;;;;;;30.00;40.13;96502.50;5051678;28;20234;-63
2021/08/18 10:21:16;;;;;;;14.27;10.82;;;;;;;28.96;40.40;96311.41;5052409;28;20051;-64
2021/08/18 10:24:00;;;;;;;15.60;10.73;;;;;;;30.40;39.81;96490.69;5053556;28;20058;-63
2021/08/18 10:26:36;;;;;;;;;;;;;;;30.18;38.51;96490.59;5054117;28;20063;-64
2021/08/18 10:29:30;;;;;;;12.40;9.55;;;;;;;30.31;39.11;96484.44;5052121;28;19973;-63
2021/08/18 10:32:00;;;;;;;16.17;10.82;;;;;;;30.34;38.16;96481.34;5051699;28;20048;-63
2021/08/18 10:34:41;;;;;;;15.02;12.20;;;;;;;30.20;38.58;96441.50;5053304;28;20054;-64
2021/08/18 10:37:31;;;;;;;14.82;11.18;;;;;;;30.46;37.96;96470.72;5054064;28;20514;-63
2021/08/18 10:40:11;;;;;;;12.38;11.10;;;;;;;30.32;37.75;96426.75;5053539;28;20511;-64
2021/08/18 10:42:43;;;;;;;15.25;10.02;;;;;;;30.92;36.44;96463.25;5054154;28;20533;-63
2021/08/18 10:45:20;;;;;;;17.02;12.23;;;;;;;31.17;36.54;96461.44;5052524;28;20055;-63
2021/08/18 10:47:46;;;;;;;12.45;10.48;;;;;;;31.75;37.03;96465.28;5054078;28;20127;-64
2021/08/18 10:50:15;;;;;;;13.45;11.88;;;;;;;31.63;35.32;96458.03;5054333;28;20083;-63
2021/08/18 10:52:42;;;;;;;14.20;10.50;;;;;;;32.04;34.63;96453.22;5054387;28;20058;-62
2021/08/18 10:55:25;;;;;;;11.63;10.45;;;;;;;32.34;34.16;96459.88;5054504;28;20056;-64
2021/08/18 10:57:53;;;;;;;12.30;11.00;;;;;;;31.83;35.05;96452.75;5054764;28;20074;-63
2021/08/18 11:00:31;;;;;;;12.02;10.70;;;;;;;32.06;34.60;96442.78;5051343;28;20074;-63
2021/08/18 11:03:01;;;;;;;14.20;10.43;;;;;;;31.97;34.39;96442.31;5053242;28;20052;-63
2021/08/18 11:05:38;;;;;;;12.10;10.20;;;;;;;32.38;34.38;96437.44;5051405;28;20059;-65
2021/08/18 11:08:16;;;;;;;12.32;9.30;;;;;;;31.87;33.88;96438.16;5053300;28;20588;-64
2021/08/18 11:10:53;;;;;;;11.68;10.52;;;;;;;31.77;33.74;96431.16;5052789;28;20127;-64
2021/08/18 11:13:41;;;;;;;11.43;9.88;;;;;;;31.45;34.09;96425.00;5056113;28;20198;-64
2021/08/18 11:16:19;;;;;;;12.60;11.00;;;;;;;31.94;33.77;96415.50;5052554;28;20585;-64
2021/08/18 11:18:49;;;;;;;11.68;10.57;;;;;;;32.45;32.77;96418.88;5054289;28;20659;-64
2021/08/18 11:21:24;;;;;;;12.70;10.73;;;;;;;32.80;32.47;96408.19;5051639;28;20905;-64
2021/08/18 11:23:55;;;;;;;11.07;10.05;;;;;;;32.04;32.78;96387.31;5053070;28;20674;-64
2021/08/18 11:26:25;;;;;;;12.45;10.85;;;;;;;31.14;34.06;96370.91;5053225;28;20476;-64
2021/08/18 11:28:57;;;;;;;12.18;10.18;;;;;;;31.41;34.18;96404.44;5051945;28;20954;-63